sensor_id;sensor_type;location;lat;lon;timestamp;temperature;humidity
736;DHT22;352;48.626;9.238;2023-05-20T00:01:29;13.50;99.90
736;DHT22;352;48.626;9.238;2023-05-20T00:03:56;13.60;99.90
736;DHT22;352;48.626;9.238;2023-05-20T00:06:23;13.50;99.90
736;DHT22;352;48.626;9.238;2023-05-20T00:08:49;13.50;99.90
736;DHT22;352;48.626;9.238;2023-05-20T00:11:16;13.60;99.90
736;DHT22;352;48.626;9.238;2023-05-20T00:13:44;13.50;99.90
736;DHT22;352;48.626;9.238;2023-05-20T00:16:11;13.60;99.90
736;DHT22;352;48.626;9.238;2023-05-20T00:18:38;13.50;99.90
736;DHT22;352;48.626;9.238;2023-05-20T00:21:05;13.50;99.90
736;DHT22;352;48.626;9.238;2023-05-20T00:23:31;13.50;99.90
736;DHT22;352;48.626;9.238;2023-05-20T00:25:58;13.60;99.90
736;DHT22;352;48.626;9.238;2023-05-20T00:28:25;13.60;99.90
736;DHT22;352;48.626;9.238;2023-05-20T00:30:53;13.50;99.90
736;DHT22;352;48.626;9.238;2023-05-20T00:33:20;13.50;99.90
736;DHT22;352;48.626;9.238;2023-05-20T00:35:47;13.60;99.90
736;DHT22;352;48.626;9.238;2023-05-20T00:38:13;13.60;99.90
736;DHT22;352;48.626;9.238;2023-05-20T00:40:40;13.60;99.90
736;DHT22;352;48.626;9.238;2023-05-20T00:43:07;13.60;99.90
736;DHT22;352;48.626;9.238;2023-05-20T00:45:33;13.60;99.90
736;DHT22;352;48.626;9.238;2023-05-20T00:48:02;13.60;99.90
736;DHT22;352;48.626;9.238;2023-05-20T00:50:29;13.60;99.90
736;DHT22;352;48.626;9.238;2023-05-20T00:52:56;13.60;99.90
736;DHT22;352;48.626;9.238;2023-05-20T00:55:23;13.60;99.90
736;DHT22;352;48.626;9.238;2023-05-20T00:57:51;13.60;99.90
736;DHT22;352;48.626;9.238;2023-05-20T01:00:18;13.60;99.90
736;DHT22;352;48.626;9.238;2023-05-20T01:02:45;13.50;99.90
736;DHT22;352;48.626;9.238;2023-05-20T01:05:13;13.50;99.90
736;DHT22;352;48.626;9.238;2023-05-20T01:07:40;13.60;99.90
736;DHT22;352;48.626;9.238;2023-05-20T01:10:08;13.40;99.90
736;DHT22;352;48.626;9.238;2023-05-20T01:12:38;13.40;99.90
736;DHT22;352;48.626;9.238;2023-05-20T01:15:08;13.40;99.90
736;DHT22;352;48.626;9.238;2023-05-20T01:17:37;13.40;99.90
736;DHT22;352;48.626;9.238;2023-05-20T01:20:05;13.50;99.90
736;DHT22;352;48.626;9.238;2023-05-20T01:22:37;13.40;99.90
736;DHT22;352;48.626;9.238;2023-05-20T01:25:04;13.40;99.90
736;DHT22;352;48.626;9.238;2023-05-20T01:27:31;13.40;99.90
736;DHT22;352;48.626;9.238;2023-05-20T01:29:57;13.30;99.90
736;DHT22;352;48.626;9.238;2023-05-20T01:32:27;13.40;99.90
736;DHT22;352;48.626;9.238;2023-05-20T01:34:57;13.40;99.90
736;DHT22;352;48.626;9.238;2023-05-20T01:37:26;13.30;99.90
736;DHT22;352;48.626;9.238;2023-05-20T01:39:55;13.30;99.90
736;DHT22;352;48.626;9.238;2023-05-20T01:42:23;13.40;99.90
736;DHT22;352;48.626;9.238;2023-05-20T01:44:52;13.40;99.90
736;DHT22;352;48.626;9.238;2023-05-20T01:47:19;13.40;99.90
736;DHT22;352;48.626;9.238;2023-05-20T01:49:45;13.30;99.90
736;DHT22;352;48.626;9.238;2023-05-20T01:52:14;13.30;99.90
736;DHT22;352;48.626;9.238;2023-05-20T01:54:40;13.20;99.90
736;DHT22;352;48.626;9.238;2023-05-20T01:57:08;13.10;99.90
736;DHT22;352;48.626;9.238;2023-05-20T01:59:35;13.10;99.90
736;DHT22;352;48.626;9.238;2023-05-20T02:02:02;13.10;99.90
736;DHT22;352;48.626;9.238;2023-05-20T02:04:29;13.00;99.90
736;DHT22;352;48.626;9.238;2023-05-20T02:06:56;13.00;99.90
736;DHT22;352;48.626;9.238;2023-05-20T02:09:22;12.90;99.90
736;DHT22;352;48.626;9.238;2023-05-20T02:11:49;12.90;99.90
736;DHT22;352;48.626;9.238;2023-05-20T02:14:17;12.80;99.90
736;DHT22;352;48.626;9.238;2023-05-20T02:16:45;12.80;99.90
736;DHT22;352;48.626;9.238;2023-05-20T02:19:12;12.80;99.90
736;DHT22;352;48.626;9.238;2023-05-20T02:21:40;12.80;99.90
736;DHT22;352;48.626;9.238;2023-05-20T02:24:08;12.70;99.90
736;DHT22;352;48.626;9.238;2023-05-20T02:26:35;12.70;99.90
736;DHT22;352;48.626;9.238;2023-05-20T02:29:02;12.80;99.90
736;DHT22;352;48.626;9.238;2023-05-20T02:31:30;12.70;99.90
736;DHT22;352;48.626;9.238;2023-05-20T02:33:56;12.80;99.90
736;DHT22;352;48.626;9.238;2023-05-20T02:36:23;12.80;99.90
736;DHT22;352;48.626;9.238;2023-05-20T02:38:50;12.80;99.90
736;DHT22;352;48.626;9.238;2023-05-20T02:41:19;12.80;99.90
736;DHT22;352;48.626;9.238;2023-05-20T02:43:45;12.80;99.90
736;DHT22;352;48.626;9.238;2023-05-20T02:46:12;12.80;99.90
736;DHT22;352;48.626;9.238;2023-05-20T02:48:41;12.80;99.90
736;DHT22;352;48.626;9.238;2023-05-20T02:51:08;12.90;99.90
736;DHT22;352;48.626;9.238;2023-05-20T02:53:34;12.90;99.90
736;DHT22;352;48.626;9.238;2023-05-20T02:56:02;12.90;99.90
736;DHT22;352;48.626;9.238;2023-05-20T02:58:29;12.90;99.90
736;DHT22;352;48.626;9.238;2023-05-20T03:00:55;12.90;99.90
736;DHT22;352;48.626;9.238;2023-05-20T03:03:24;12.80;99.90
736;DHT22;352;48.626;9.238;2023-05-20T03:05:53;12.80;99.90
736;DHT22;352;48.626;9.238;2023-05-20T03:08:21;12.70;99.90
736;DHT22;352;48.626;9.238;2023-05-20T03:10:48;12.60;99.90
736;DHT22;352;48.626;9.238;2023-05-20T03:13:15;12.60;99.90
736;DHT22;352;48.626;9.238;2023-05-20T03:15:42;12.60;99.90
736;DHT22;352;48.626;9.238;2023-05-20T03:18:10;12.60;99.90
736;DHT22;352;48.626;9.238;2023-05-20T03:20:37;12.50;99.90
736;DHT22;352;48.626;9.238;2023-05-20T03:23:06;12.50;99.90
736;DHT22;352;48.626;9.238;2023-05-20T03:25:32;12.50;99.90
736;DHT22;352;48.626;9.238;2023-05-20T03:27:59;12.50;99.90
736;DHT22;352;48.626;9.238;2023-05-20T03:30:26;12.50;99.90
736;DHT22;352;48.626;9.238;2023-05-20T03:32:55;12.60;99.90
736;DHT22;352;48.626;9.238;2023-05-20T03:35:22;12.60;99.90
736;DHT22;352;48.626;9.238;2023-05-20T03:37:49;12.50;99.90
736;DHT22;352;48.626;9.238;2023-05-20T03:40:19;12.50;99.90
736;DHT22;352;48.626;9.238;2023-05-20T03:42:46;12.50;99.90
736;DHT22;352;48.626;9.238;2023-05-20T03:45:14;12.50;99.90
736;DHT22;352;48.626;9.238;2023-05-20T03:47:41;12.50;99.90
736;DHT22;352;48.626;9.238;2023-05-20T03:50:08;12.50;99.90
736;DHT22;352;48.626;9.238;2023-05-20T03:52:35;12.50;99.90
736;DHT22;352;48.626;9.238;2023-05-20T03:55:03;12.50;99.90
736;DHT22;352;48.626;9.238;2023-05-20T03:57:31;12.60;99.90
736;DHT22;352;48.626;9.238;2023-05-20T03:59:58;12.60;99.90
736;DHT22;352;48.626;9.238;2023-05-20T04:02:26;12.60;99.90
736;DHT22;352;48.626;9.238;2023-05-20T04:04:53;12.70;99.90
736;DHT22;352;48.626;9.238;2023-05-20T04:07:22;12.70;99.90
736;DHT22;352;48.626;9.238;2023-05-20T04:09:48;12.80;99.90
736;DHT22;352;48.626;9.238;2023-05-20T04:12:16;12.70;99.90
736;DHT22;352;48.626;9.238;2023-05-20T04:14:46;12.70;99.90
736;DHT22;352;48.626;9.238;2023-05-20T04:17:14;12.70;99.90
736;DHT22;352;48.626;9.238;2023-05-20T04:19:41;12.70;99.90
736;DHT22;352;48.626;9.238;2023-05-20T04:22:09;12.80;99.90
736;DHT22;352;48.626;9.238;2023-05-20T04:24:36;12.80;99.90
736;DHT22;352;48.626;9.238;2023-05-20T04:27:03;12.80;99.90
736;DHT22;352;48.626;9.238;2023-05-20T04:29:30;12.80;99.90
736;DHT22;352;48.626;9.238;2023-05-20T04:31:59;12.80;99.90
736;DHT22;352;48.626;9.238;2023-05-20T04:34:28;12.90;99.90
736;DHT22;352;48.626;9.238;2023-05-20T04:36:59;12.90;99.90
736;DHT22;352;48.626;9.238;2023-05-20T04:39:26;13.00;99.90
736;DHT22;352;48.626;9.238;2023-05-20T04:41:52;13.00;99.90
736;DHT22;352;48.626;9.238;2023-05-20T04:44:20;13.10;99.90
736;DHT22;352;48.626;9.238;2023-05-20T04:46:47;13.10;99.90
736;DHT22;352;48.626;9.238;2023-05-20T04:49:16;13.10;99.90
736;DHT22;352;48.626;9.238;2023-05-20T04:51:43;13.20;99.90
736;DHT22;352;48.626;9.238;2023-05-20T04:54:11;13.20;99.90
736;DHT22;352;48.626;9.238;2023-05-20T04:56:41;13.20;99.90
736;DHT22;352;48.626;9.238;2023-05-20T04:59:08;13.20;99.90
736;DHT22;352;48.626;9.238;2023-05-20T05:01:35;13.20;99.90
736;DHT22;352;48.626;9.238;2023-05-20T05:04:02;13.30;99.90
736;DHT22;352;48.626;9.238;2023-05-20T05:06:33;13.30;99.90
736;DHT22;352;48.626;9.238;2023-05-20T05:08:59;13.30;99.90
736;DHT22;352;48.626;9.238;2023-05-20T05:11:26;13.30;99.90
736;DHT22;352;48.626;9.238;2023-05-20T05:13:54;13.40;99.90
736;DHT22;352;48.626;9.238;2023-05-20T05:16:21;13.40;99.90
736;DHT22;352;48.626;9.238;2023-05-20T05:18:47;13.50;99.90
736;DHT22;352;48.626;9.238;2023-05-20T05:21:14;13.50;99.90
736;DHT22;352;48.626;9.238;2023-05-20T05:23:42;13.50;99.90
736;DHT22;352;48.626;9.238;2023-05-20T05:26:09;13.50;99.90
736;DHT22;352;48.626;9.238;2023-05-20T05:28:36;13.60;99.90
736;DHT22;352;48.626;9.238;2023-05-20T05:31:03;13.60;99.90
736;DHT22;352;48.626;9.238;2023-05-20T05:33:31;13.60;99.90
736;DHT22;352;48.626;9.238;2023-05-20T05:35:57;13.70;99.90
736;DHT22;352;48.626;9.238;2023-05-20T05:38:25;13.80;99.90
736;DHT22;352;48.626;9.238;2023-05-20T05:40:53;13.80;99.90
736;DHT22;352;48.626;9.238;2023-05-20T05:43:20;13.90;99.90
736;DHT22;352;48.626;9.238;2023-05-20T05:45:47;13.90;99.90
736;DHT22;352;48.626;9.238;2023-05-20T05:48:13;13.90;99.90
736;DHT22;352;48.626;9.238;2023-05-20T05:50:43;14.00;99.90
736;DHT22;352;48.626;9.238;2023-05-20T05:53:12;14.00;99.90
736;DHT22;352;48.626;9.238;2023-05-20T05:55:39;14.10;99.90
736;DHT22;352;48.626;9.238;2023-05-20T05:58:08;14.10;99.90
736;DHT22;352;48.626;9.238;2023-05-20T06:00:34;14.10;99.90
736;DHT22;352;48.626;9.238;2023-05-20T06:03:01;14.20;99.90
736;DHT22;352;48.626;9.238;2023-05-20T06:05:28;14.20;99.90
736;DHT22;352;48.626;9.238;2023-05-20T06:07:54;14.30;99.90
736;DHT22;352;48.626;9.238;2023-05-20T06:10:21;14.30;99.90
736;DHT22;352;48.626;9.238;2023-05-20T06:12:48;14.40;99.90
736;DHT22;352;48.626;9.238;2023-05-20T06:15:16;14.40;99.90
736;DHT22;352;48.626;9.238;2023-05-20T06:17:43;14.50;99.90
736;DHT22;352;48.626;9.238;2023-05-20T06:20:11;14.50;99.90
736;DHT22;352;48.626;9.238;2023-05-20T06:22:37;14.60;99.90
736;DHT22;352;48.626;9.238;2023-05-20T06:25:05;14.70;99.90
736;DHT22;352;48.626;9.238;2023-05-20T06:27:32;14.80;99.90
736;DHT22;352;48.626;9.238;2023-05-20T06:29:58;14.80;99.90
736;DHT22;352;48.626;9.238;2023-05-20T06:32:26;14.80;99.90
736;DHT22;352;48.626;9.238;2023-05-20T06:34:53;14.90;99.90
736;DHT22;352;48.626;9.238;2023-05-20T06:37:20;15.00;99.90
736;DHT22;352;48.626;9.238;2023-05-20T06:39:48;15.10;99.90
736;DHT22;352;48.626;9.238;2023-05-20T06:42:18;15.10;99.90
736;DHT22;352;48.626;9.238;2023-05-20T06:44:44;15.20;99.90
736;DHT22;352;48.626;9.238;2023-05-20T06:47:13;15.30;99.90
736;DHT22;352;48.626;9.238;2023-05-20T06:49:41;15.40;99.90
736;DHT22;352;48.626;9.238;2023-05-20T06:52:08;15.40;99.90
736;DHT22;352;48.626;9.238;2023-05-20T06:54:36;15.40;99.90
736;DHT22;352;48.626;9.238;2023-05-20T06:57:05;15.50;99.90
736;DHT22;352;48.626;9.238;2023-05-20T06:59:32;15.80;99.90
736;DHT22;352;48.626;9.238;2023-05-20T07:01:59;16.10;99.90
736;DHT22;352;48.626;9.238;2023-05-20T07:04:26;16.20;99.90
736;DHT22;352;48.626;9.238;2023-05-20T07:06:54;16.20;99.90
736;DHT22;352;48.626;9.238;2023-05-20T07:09:21;16.40;99.90
736;DHT22;352;48.626;9.238;2023-05-20T07:11:48;16.60;99.90
736;DHT22;352;48.626;9.238;2023-05-20T07:14:15;16.90;99.90
736;DHT22;352;48.626;9.238;2023-05-20T07:19:08;17.00;99.90
736;DHT22;352;48.626;9.238;2023-05-20T07:21:35;17.10;99.90
736;DHT22;352;48.626;9.238;2023-05-20T07:24:03;17.20;99.90
736;DHT22;352;48.626;9.238;2023-05-20T07:26:30;17.10;99.90
736;DHT22;352;48.626;9.238;2023-05-20T07:28:58;17.30;99.90
736;DHT22;352;48.626;9.238;2023-05-20T07:31:26;17.30;99.90
736;DHT22;352;48.626;9.238;2023-05-20T07:36:20;17.40;99.90
736;DHT22;352;48.626;9.238;2023-05-20T07:38:47;17.30;99.90
736;DHT22;352;48.626;9.238;2023-05-20T07:41:15;17.30;99.90
736;DHT22;352;48.626;9.238;2023-05-20T07:43:41;17.30;99.90
736;DHT22;352;48.626;9.238;2023-05-20T07:46:08;17.20;99.90
736;DHT22;352;48.626;9.238;2023-05-20T07:48:36;17.10;99.90
736;DHT22;352;48.626;9.238;2023-05-20T07:51:03;17.30;99.90
736;DHT22;352;48.626;9.238;2023-05-20T07:53:30;17.70;99.90
736;DHT22;352;48.626;9.238;2023-05-20T07:55:58;17.80;99.90
736;DHT22;352;48.626;9.238;2023-05-20T07:58:26;17.80;99.90
736;DHT22;352;48.626;9.238;2023-05-20T08:01:00;17.80;99.90
736;DHT22;352;48.626;9.238;2023-05-20T08:03:26;17.80;99.90
736;DHT22;352;48.626;9.238;2023-05-20T08:05:53;17.70;99.90
736;DHT22;352;48.626;9.238;2023-05-20T08:08:20;17.60;99.90
736;DHT22;352;48.626;9.238;2023-05-20T08:10:46;17.60;99.90
736;DHT22;352;48.626;9.238;2023-05-20T08:13:13;17.50;99.90
736;DHT22;352;48.626;9.238;2023-05-20T08:15:41;17.50;99.90
736;DHT22;352;48.626;9.238;2023-05-20T08:18:08;17.40;99.90
736;DHT22;352;48.626;9.238;2023-05-20T08:20:35;17.30;99.90
736;DHT22;352;48.626;9.238;2023-05-20T08:23:02;17.40;99.90
736;DHT22;352;48.626;9.238;2023-05-20T08:25:28;17.80;99.90
736;DHT22;352;48.626;9.238;2023-05-20T08:27:55;18.00;99.90
736;DHT22;352;48.626;9.238;2023-05-20T08:30:22;18.20;99.90
736;DHT22;352;48.626;9.238;2023-05-20T08:32:50;18.40;99.90
736;DHT22;352;48.626;9.238;2023-05-20T08:35:17;18.40;99.90
736;DHT22;352;48.626;9.238;2023-05-20T08:37:44;18.40;99.90
736;DHT22;352;48.626;9.238;2023-05-20T08:40:11;18.50;99.90
736;DHT22;352;48.626;9.238;2023-05-20T08:42:40;18.90;99.90
736;DHT22;352;48.626;9.238;2023-05-20T08:45:10;19.90;99.90
736;DHT22;352;48.626;9.238;2023-05-20T08:47:40;20.60;99.90
736;DHT22;352;48.626;9.238;2023-05-20T08:50:09;20.00;99.90
736;DHT22;352;48.626;9.238;2023-05-20T08:52:39;20.30;99.90
736;DHT22;352;48.626;9.238;2023-05-20T08:55:08;20.40;99.90
736;DHT22;352;48.626;9.238;2023-05-20T08:57:37;20.70;99.90
736;DHT22;352;48.626;9.238;2023-05-20T09:00:07;20.80;99.80
736;DHT22;352;48.626;9.238;2023-05-20T09:02:37;21.00;99.90
736;DHT22;352;48.626;9.238;2023-05-20T09:05:05;20.90;99.60
736;DHT22;352;48.626;9.238;2023-05-20T09:07:34;20.80;99.80
736;DHT22;352;48.626;9.238;2023-05-20T09:10:01;20.80;99.90
736;DHT22;352;48.626;9.238;2023-05-20T09:12:28;20.70;99.10
736;DHT22;352;48.626;9.238;2023-05-20T09:14:54;20.60;99.10
736;DHT22;352;48.626;9.238;2023-05-20T09:17:22;20.60;99.60
736;DHT22;352;48.626;9.238;2023-05-20T09:19:49;20.60;99.90
736;DHT22;352;48.626;9.238;2023-05-20T09:22:21;20.60;99.90
736;DHT22;352;48.626;9.238;2023-05-20T09:24:49;20.70;99.90
736;DHT22;352;48.626;9.238;2023-05-20T09:27:16;20.90;99.60
736;DHT22;352;48.626;9.238;2023-05-20T09:29:43;21.00;99.20
736;DHT22;352;48.626;9.238;2023-05-20T09:32:10;21.10;98.30
736;DHT22;352;48.626;9.238;2023-05-20T09:34:38;21.30;98.90
736;DHT22;352;48.626;9.238;2023-05-20T09:37:06;21.60;98.60
736;DHT22;352;48.626;9.238;2023-05-20T09:39:39;21.70;97.60
736;DHT22;352;48.626;9.238;2023-05-20T09:42:16;21.80;98.40
736;DHT22;352;48.626;9.238;2023-05-20T09:44:44;22.20;97.20
736;DHT22;352;48.626;9.238;2023-05-20T09:47:10;22.50;96.60
736;DHT22;352;48.626;9.238;2023-05-20T09:49:39;22.80;96.30
736;DHT22;352;48.626;9.238;2023-05-20T09:52:06;23.20;96.40
736;DHT22;352;48.626;9.238;2023-05-20T09:54:35;23.60;95.60
736;DHT22;352;48.626;9.238;2023-05-20T09:57:02;23.60;94.50
736;DHT22;352;48.626;9.238;2023-05-20T09:59:31;23.50;94.10
736;DHT22;352;48.626;9.238;2023-05-20T10:01:59;23.80;95.00
736;DHT22;352;48.626;9.238;2023-05-20T10:04:27;24.10;93.90
736;DHT22;352;48.626;9.238;2023-05-20T10:07:17;23.90;93.90
736;DHT22;352;48.626;9.238;2023-05-20T10:09:56;23.80;94.40
736;DHT22;352;48.626;9.238;2023-05-20T10:12:32;23.90;94.50
736;DHT22;352;48.626;9.238;2023-05-20T10:15:09;23.70;94.80
736;DHT22;352;48.626;9.238;2023-05-20T10:17:42;23.30;94.80
736;DHT22;352;48.626;9.238;2023-05-20T10:20:10;22.90;94.80
736;DHT22;352;48.626;9.238;2023-05-20T10:22:37;22.90;95.00
736;DHT22;352;48.626;9.238;2023-05-20T10:25:06;22.70;95.10
736;DHT22;352;48.626;9.238;2023-05-20T10:27:42;22.50;94.60
736;DHT22;352;48.626;9.238;2023-05-20T10:30:16;22.30;95.30
736;DHT22;352;48.626;9.238;2023-05-20T10:32:50;22.10;95.90
736;DHT22;352;48.626;9.238;2023-05-20T10:35:21;22.30;95.50
736;DHT22;352;48.626;9.238;2023-05-20T10:37:50;22.60;96.00
736;DHT22;352;48.626;9.238;2023-05-20T10:40:19;23.10;95.20
736;DHT22;352;48.626;9.238;2023-05-20T10:42:46;23.40;94.00
736;DHT22;352;48.626;9.238;2023-05-20T10:45:25;23.80;93.20
736;DHT22;352;48.626;9.238;2023-05-20T10:47:53;24.10;93.00
736;DHT22;352;48.626;9.238;2023-05-20T10:50:28;24.60;92.50
736;DHT22;352;48.626;9.238;2023-05-20T10:53:02;24.70;92.40
736;DHT22;352;48.626;9.238;2023-05-20T10:55:35;24.70;91.70
736;DHT22;352;48.626;9.238;2023-05-20T10:58:03;24.80;92.00
736;DHT22;352;48.626;9.238;2023-05-20T11:00:33;25.00;92.40
736;DHT22;352;48.626;9.238;2023-05-20T11:03:00;25.10;91.40
736;DHT22;352;48.626;9.238;2023-05-20T11:05:28;24.80;91.10
736;DHT22;352;48.626;9.238;2023-05-20T11:08:00;25.00;92.20
736;DHT22;352;48.626;9.238;2023-05-20T11:10:27;25.20;91.70
736;DHT22;352;48.626;9.238;2023-05-20T11:12:56;25.50;91.80
736;DHT22;352;48.626;9.238;2023-05-20T11:15:23;25.70;92.10
736;DHT22;352;48.626;9.238;2023-05-20T11:17:52;25.40;95.40
736;DHT22;352;48.626;9.238;2023-05-20T11:20:20;25.50;89.70
736;DHT22;352;48.626;9.238;2023-05-20T11:22:48;25.10;93.40
736;DHT22;352;48.626;9.238;2023-05-20T11:25:15;25.10;91.00
736;DHT22;352;48.626;9.238;2023-05-20T11:27:42;24.90;91.00
736;DHT22;352;48.626;9.238;2023-05-20T11:30:10;24.70;90.80
736;DHT22;352;48.626;9.238;2023-05-20T11:32:37;24.40;90.80
736;DHT22;352;48.626;9.238;2023-05-20T11:35:06;24.20;91.30
736;DHT22;352;48.626;9.238;2023-05-20T11:37:35;24.20;91.50
736;DHT22;352;48.626;9.238;2023-05-20T11:40:03;24.10;91.50
736;DHT22;352;48.626;9.238;2023-05-20T11:42:32;24.10;91.40
736;DHT22;352;48.626;9.238;2023-05-20T11:44:59;24.00;92.00
736;DHT22;352;48.626;9.238;2023-05-20T11:47:26;24.00;92.10
736;DHT22;352;48.626;9.238;2023-05-20T11:49:52;24.00;92.20
736;DHT22;352;48.626;9.238;2023-05-20T11:52:20;23.90;91.70
736;DHT22;352;48.626;9.238;2023-05-20T11:54:51;23.90;92.80
736;DHT22;352;48.626;9.238;2023-05-20T11:57:18;23.90;92.90
736;DHT22;352;48.626;9.238;2023-05-20T11:59:46;23.90;92.20
736;DHT22;352;48.626;9.238;2023-05-20T12:02:12;23.90;92.90
736;DHT22;352;48.626;9.238;2023-05-20T12:04:39;23.90;92.10
736;DHT22;352;48.626;9.238;2023-05-20T12:07:06;23.80;92.60
736;DHT22;352;48.626;9.238;2023-05-20T12:09:36;23.80;92.70
736;DHT22;352;48.626;9.238;2023-05-20T12:12:03;23.70;92.30
736;DHT22;352;48.626;9.238;2023-05-20T12:14:29;23.70;92.50
736;DHT22;352;48.626;9.238;2023-05-20T12:16:56;23.70;92.90
736;DHT22;352;48.626;9.238;2023-05-20T12:19:24;23.90;92.50
736;DHT22;352;48.626;9.238;2023-05-20T12:21:50;23.90;92.50
736;DHT22;352;48.626;9.238;2023-05-20T12:24:17;23.90;92.60
736;DHT22;352;48.626;9.238;2023-05-20T12:26:45;23.80;92.30
736;DHT22;352;48.626;9.238;2023-05-20T12:29:12;23.80;92.70
736;DHT22;352;48.626;9.238;2023-05-20T12:31:39;23.70;92.30
736;DHT22;352;48.626;9.238;2023-05-20T12:34:06;23.70;93.20
736;DHT22;352;48.626;9.238;2023-05-20T12:36:32;23.50;93.20
736;DHT22;352;48.626;9.238;2023-05-20T12:38:59;23.70;99.90
736;DHT22;352;48.626;9.238;2023-05-20T12:41:26;23.50;92.40
736;DHT22;352;48.626;9.238;2023-05-20T12:43:54;23.50;91.90
736;DHT22;352;48.626;9.238;2023-05-20T12:46:20;23.40;92.80
736;DHT22;352;48.626;9.238;2023-05-20T12:48:47;23.60;92.80
736;DHT22;352;48.626;9.238;2023-05-20T12:51:14;23.40;92.60
736;DHT22;352;48.626;9.238;2023-05-20T12:53:41;23.40;92.50
736;DHT22;352;48.626;9.238;2023-05-20T12:56:07;23.40;92.80
736;DHT22;352;48.626;9.238;2023-05-20T12:58:34;23.50;99.90
736;DHT22;352;48.626;9.238;2023-05-20T13:01:02;23.50;92.30
736;DHT22;352;48.626;9.238;2023-05-20T13:03:29;23.40;99.90
736;DHT22;352;48.626;9.238;2023-05-20T13:05:55;23.40;99.90
736;DHT22;352;48.626;9.238;2023-05-20T13:08:23;23.20;99.90
736;DHT22;352;48.626;9.238;2023-05-20T13:10:50;23.20;91.60
736;DHT22;352;48.626;9.238;2023-05-20T13:13:17;23.10;91.80
736;DHT22;352;48.626;9.238;2023-05-20T13:15:46;23.10;92.90
736;DHT22;352;48.626;9.238;2023-05-20T13:18:15;23.10;93.40
736;DHT22;352;48.626;9.238;2023-05-20T13:20:42;23.10;93.50
736;DHT22;352;48.626;9.238;2023-05-20T13:23:09;23.20;93.70
736;DHT22;352;48.626;9.238;2023-05-20T13:25:35;23.20;93.70
736;DHT22;352;48.626;9.238;2023-05-20T13:28:04;23.20;93.40
736;DHT22;352;48.626;9.238;2023-05-20T13:30:31;23.30;93.10
736;DHT22;352;48.626;9.238;2023-05-20T13:32:57;23.30;93.70
736;DHT22;352;48.626;9.238;2023-05-20T13:35:25;23.30;93.40
736;DHT22;352;48.626;9.238;2023-05-20T13:37:52;23.30;93.70
736;DHT22;352;48.626;9.238;2023-05-20T13:40:19;23.40;93.70
736;DHT22;352;48.626;9.238;2023-05-20T13:42:45;23.40;93.80
736;DHT22;352;48.626;9.238;2023-05-20T13:45:12;23.50;93.30
736;DHT22;352;48.626;9.238;2023-05-20T13:47:39;23.40;92.60
736;DHT22;352;48.626;9.238;2023-05-20T13:50:07;23.40;92.70
736;DHT22;352;48.626;9.238;2023-05-20T13:52:35;23.40;93.10
736;DHT22;352;48.626;9.238;2023-05-20T13:55:02;23.50;92.70
736;DHT22;352;48.626;9.238;2023-05-20T13:57:29;23.50;91.60
736;DHT22;352;48.626;9.238;2023-05-20T13:59:55;23.50;91.70
736;DHT22;352;48.626;9.238;2023-05-20T14:02:22;23.60;90.80
736;DHT22;352;48.626;9.238;2023-05-20T14:04:49;23.50;90.60
736;DHT22;352;48.626;9.238;2023-05-20T14:07:16;23.40;91.40
736;DHT22;352;48.626;9.238;2023-05-20T14:09:44;23.40;91.60
736;DHT22;352;48.626;9.238;2023-05-20T14:12:10;23.40;91.90
736;DHT22;352;48.626;9.238;2023-05-20T14:14:37;23.30;90.90
736;DHT22;352;48.626;9.238;2023-05-20T14:17:04;23.20;91.00
736;DHT22;352;48.626;9.238;2023-05-20T14:19:30;23.20;91.90
736;DHT22;352;48.626;9.238;2023-05-20T14:21:57;23.20;91.90
736;DHT22;352;48.626;9.238;2023-05-20T14:24:25;23.20;92.00
736;DHT22;352;48.626;9.238;2023-05-20T14:26:53;23.20;90.90
736;DHT22;352;48.626;9.238;2023-05-20T14:29:20;23.20;91.00
736;DHT22;352;48.626;9.238;2023-05-20T14:31:47;23.20;91.60
736;DHT22;352;48.626;9.238;2023-05-20T14:34:13;23.10;91.30
736;DHT22;352;48.626;9.238;2023-05-20T14:36:41;23.10;90.50
736;DHT22;352;48.626;9.238;2023-05-20T14:39:08;23.00;91.80
736;DHT22;352;48.626;9.238;2023-05-20T14:41:35;23.00;91.40
736;DHT22;352;48.626;9.238;2023-05-20T14:44:03;23.00;91.30
736;DHT22;352;48.626;9.238;2023-05-20T14:46:30;22.90;91.50
736;DHT22;352;48.626;9.238;2023-05-20T14:48:57;23.00;99.90
736;DHT22;352;48.626;9.238;2023-05-20T14:51:24;23.00;91.80
736;DHT22;352;48.626;9.238;2023-05-20T14:53:51;23.00;91.60
736;DHT22;352;48.626;9.238;2023-05-20T14:56:17;22.90;91.50
736;DHT22;352;48.626;9.238;2023-05-20T14:58:44;22.90;92.10
736;DHT22;352;48.626;9.238;2023-05-20T15:01:12;22.90;92.80
736;DHT22;352;48.626;9.238;2023-05-20T15:03:39;22.90;93.10
736;DHT22;352;48.626;9.238;2023-05-20T15:06:06;22.90;92.00
736;DHT22;352;48.626;9.238;2023-05-20T15:08:33;22.90;92.00
736;DHT22;352;48.626;9.238;2023-05-20T15:11:00;22.90;91.30
736;DHT22;352;48.626;9.238;2023-05-20T15:13:26;22.90;91.30
736;DHT22;352;48.626;9.238;2023-05-20T15:15:53;22.90;91.60
736;DHT22;352;48.626;9.238;2023-05-20T15:18:21;22.90;91.30
736;DHT22;352;48.626;9.238;2023-05-20T15:20:48;22.90;91.80
736;DHT22;352;48.626;9.238;2023-05-20T15:23:15;22.90;92.50
736;DHT22;352;48.626;9.238;2023-05-20T15:25:42;22.80;91.90
736;DHT22;352;48.626;9.238;2023-05-20T15:28:09;22.90;92.20
736;DHT22;352;48.626;9.238;2023-05-20T15:30:36;23.00;92.70
736;DHT22;352;48.626;9.238;2023-05-20T15:33:02;23.00;92.30
736;DHT22;352;48.626;9.238;2023-05-20T15:35:30;23.00;91.90
736;DHT22;352;48.626;9.238;2023-05-20T15:37:57;23.00;91.90
736;DHT22;352;48.626;9.238;2023-05-20T15:40:24;23.10;92.10
736;DHT22;352;48.626;9.238;2023-05-20T15:42:50;23.10;92.20
736;DHT22;352;48.626;9.238;2023-05-20T15:47:45;23.10;91.60
736;DHT22;352;48.626;9.238;2023-05-20T15:50:11;23.10;92.00
736;DHT22;352;48.626;9.238;2023-05-20T15:52:39;23.10;92.10
736;DHT22;352;48.626;9.238;2023-05-20T15:55:07;23.10;91.90
736;DHT22;352;48.626;9.238;2023-05-20T15:57:35;23.10;91.80
736;DHT22;352;48.626;9.238;2023-05-20T16:00:02;23.10;92.40
736;DHT22;352;48.626;9.238;2023-05-20T16:02:34;23.10;92.20
736;DHT22;352;48.626;9.238;2023-05-20T16:05:01;23.10;92.40
736;DHT22;352;48.626;9.238;2023-05-20T16:07:29;23.10;92.40
736;DHT22;352;48.626;9.238;2023-05-20T16:09:57;23.10;91.90
736;DHT22;352;48.626;9.238;2023-05-20T16:12:24;23.00;92.20
736;DHT22;352;48.626;9.238;2023-05-20T16:14:51;23.10;92.20
736;DHT22;352;48.626;9.238;2023-05-20T16:17:17;23.10;92.60
736;DHT22;352;48.626;9.238;2023-05-20T16:19:46;23.10;92.60
736;DHT22;352;48.626;9.238;2023-05-20T16:22:13;23.10;93.20
736;DHT22;352;48.626;9.238;2023-05-20T16:24:40;23.10;92.70
736;DHT22;352;48.626;9.238;2023-05-20T16:27:09;23.10;92.80
736;DHT22;352;48.626;9.238;2023-05-20T16:29:36;23.10;93.20
736;DHT22;352;48.626;9.238;2023-05-20T16:32:04;23.10;93.00
736;DHT22;352;48.626;9.238;2023-05-20T16:34:31;23.10;93.80
736;DHT22;352;48.626;9.238;2023-05-20T16:36:58;23.10;93.20
736;DHT22;352;48.626;9.238;2023-05-20T16:39:25;23.10;93.70
736;DHT22;352;48.626;9.238;2023-05-20T16:41:51;23.10;92.60
736;DHT22;352;48.626;9.238;2023-05-20T16:44:19;23.10;92.60